sensor_id;sensor_type;location;lat;lon;timestamp;P1;durP1;ratioP1;P2;durP2;ratioP2
75986;SDS011;75291;44.670;37.810;2024-02-23T00:00:01;46.05;;;21.27;;
75986;SDS011;75291;44.670;37.810;2024-02-23T00:01:08;44.95;;;20.90;;
75986;SDS011;75291;44.670;37.810;2024-02-23T00:02:14;45.03;;;21.58;;
75986;SDS011;75291;44.670;37.810;2024-02-23T00:03:18;49.35;;;22.33;;
75986;SDS011;75291;44.670;37.810;2024-02-23T00:04:22;45.67;;;22.73;;
75986;SDS011;75291;44.670;37.810;2024-02-23T00:05:26;48.53;;;23.10;;
75986;SDS011;75291;44.670;37.810;2024-02-23T00:06:30;49.30;;;22.15;;
75986;SDS011;75291;44.670;37.810;2024-02-23T00:07:34;43.20;;;20.27;;
75986;SDS011;75291;44.670;37.810;2024-02-23T00:08:38;42.58;;;21.45;;
75986;SDS011;75291;44.670;37.810;2024-02-23T00:09:43;43.72;;;20.45;;
75986;SDS011;75291;44.670;37.810;2024-02-23T00:10:47;37.78;;;18.08;;
75986;SDS011;75291;44.670;37.810;2024-02-23T00:11:51;44.03;;;18.45;;
75986;SDS011;75291;44.670;37.810;2024-02-23T00:12:54;39.95;;;17.17;;
75986;SDS011;75291;44.670;37.810;2024-02-23T00:13:58;34.38;;;17.40;;
75986;SDS011;75291;44.670;37.810;2024-02-23T00:15:01;37.90;;;16.55;;
75986;SDS011;75291;44.670;37.810;2024-02-23T00:16:05;33.45;;;16.75;;
75986;SDS011;75291;44.670;37.810;2024-02-23T00:17:09;31.23;;;15.30;;
75986;SDS011;75291;44.670;37.810;2024-02-23T00:18:14;34.95;;;16.38;;
75986;SDS011;75291;44.670;37.810;2024-02-23T00:19:20;33.70;;;16.08;;
75986;SDS011;75291;44.670;37.810;2024-02-23T00:20:24;39.15;;;14.70;;
75986;SDS011;75291;44.670;37.810;2024-02-23T00:21:28;40.85;;;16.10;;
75986;SDS011;75291;44.670;37.810;2024-02-23T00:22:32;38.10;;;15.57;;
75986;SDS011;75291;44.670;37.810;2024-02-23T00:23:36;28.52;;;14.68;;
75986;SDS011;75291;44.670;37.810;2024-02-23T00:24:40;33.92;;;14.45;;
75986;SDS011;75291;44.670;37.810;2024-02-23T00:25:44;39.13;;;16.35;;
75986;SDS011;75291;44.670;37.810;2024-02-23T00:26:48;32.83;;;15.00;;
75986;SDS011;75291;44.670;37.810;2024-02-23T00:27:53;31.90;;;14.82;;
75986;SDS011;75291;44.670;37.810;2024-02-23T00:28:56;37.08;;;13.45;;
75986;SDS011;75291;44.670;37.810;2024-02-23T00:30:00;33.28;;;12.50;;
75986;SDS011;75291;44.670;37.810;2024-02-23T00:31:05;34.88;;;13.77;;
75986;SDS011;75291;44.670;37.810;2024-02-23T00:32:09;36.15;;;13.60;;
75986;SDS011;75291;44.670;37.810;2024-02-23T00:33:13;30.92;;;14.07;;
75986;SDS011;75291;44.670;37.810;2024-02-23T00:34:16;27.38;;;12.65;;
75986;SDS011;75291;44.670;37.810;2024-02-23T00:35:20;39.40;;;13.48;;
75986;SDS011;75291;44.670;37.810;2024-02-23T00:36:23;35.83;;;13.50;;
75986;SDS011;75291;44.670;37.810;2024-02-23T00:37:27;34.85;;;12.52;;
75986;SDS011;75291;44.670;37.810;2024-02-23T00:38:31;33.50;;;12.05;;
75986;SDS011;75291;44.670;37.810;2024-02-23T00:39:35;32.10;;;13.48;;
75986;SDS011;75291;44.670;37.810;2024-02-23T00:40:40;38.50;;;12.55;;
75986;SDS011;75291;44.670;37.810;2024-02-23T00:41:43;34.08;;;13.20;;
75986;SDS011;75291;44.670;37.810;2024-02-23T00:42:47;36.30;;;12.38;;
75986;SDS011;75291;44.670;37.810;2024-02-23T00:43:50;37.47;;;11.93;;
75986;SDS011;75291;44.670;37.810;2024-02-23T00:44:54;30.65;;;12.90;;
75986;SDS011;75291;44.670;37.810;2024-02-23T00:45:58;36.78;;;14.65;;
75986;SDS011;75291;44.670;37.810;2024-02-23T00:47:02;38.53;;;14.10;;
75986;SDS011;75291;44.670;37.810;2024-02-23T00:48:07;31.52;;;12.60;;
75986;SDS011;75291;44.670;37.810;2024-02-23T00:49:11;36.88;;;13.18;;
75986;SDS011;75291;44.670;37.810;2024-02-23T00:50:15;29.05;;;12.48;;
75986;SDS011;75291;44.670;37.810;2024-02-23T00:51:19;31.92;;;12.55;;
75986;SDS011;75291;44.670;37.810;2024-02-23T00:52:23;35.60;;;11.65;;
75986;SDS011;75291;44.670;37.810;2024-02-23T00:53:26;32.78;;;11.15;;
75986;SDS011;75291;44.670;37.810;2024-02-23T00:54:30;22.90;;;11.10;;
75986;SDS011;75291;44.670;37.810;2024-02-23T00:55:33;30.33;;;11.88;;
75986;SDS011;75291;44.670;37.810;2024-02-23T00:56:36;29.38;;;11.65;;
75986;SDS011;75291;44.670;37.810;2024-02-23T00:57:41;26.20;;;12.10;;
75986;SDS011;75291;44.670;37.810;2024-02-23T00:58:45;25.42;;;10.98;;
75986;SDS011;75291;44.670;37.810;2024-02-23T00:59:49;23.58;;;10.95;;
75986;SDS011;75291;44.670;37.810;2024-02-23T01:00:52;30.25;;;12.32;;
75986;SDS011;75291;44.670;37.810;2024-02-23T01:01:56;24.65;;;10.90;;
75986;SDS011;75291;44.670;37.810;2024-02-23T01:03:00;22.75;;;11.07;;
75986;SDS011;75291;44.670;37.810;2024-02-23T01:04:04;23.20;;;10.93;;
75986;SDS011;75291;44.670;37.810;2024-02-23T01:05:07;25.30;;;11.02;;
75986;SDS011;75291;44.670;37.810;2024-02-23T01:06:14;23.80;;;10.90;;
75986;SDS011;75291;44.670;37.810;2024-02-23T01:07:18;22.75;;;10.75;;
75986;SDS011;75291;44.670;37.810;2024-02-23T01:08:21;19.30;;;10.02;;
75986;SDS011;75291;44.670;37.810;2024-02-23T01:09:25;23.88;;;11.38;;
75986;SDS011;75291;44.670;37.810;2024-02-23T01:10:29;23.83;;;10.45;;
75986;SDS011;75291;44.670;37.810;2024-02-23T01:11:37;23.80;;;11.13;;
75986;SDS011;75291;44.670;37.810;2024-02-23T01:12:41;24.42;;;11.73;;
75986;SDS011;75291;44.670;37.810;2024-02-23T01:13:44;23.55;;;11.15;;
75986;SDS011;75291;44.670;37.810;2024-02-23T01:14:48;22.85;;;12.05;;
75986;SDS011;75291;44.670;37.810;2024-02-23T01:15:52;22.50;;;11.65;;
75986;SDS011;75291;44.670;37.810;2024-02-23T01:16:56;22.38;;;10.75;;
75986;SDS011;75291;44.670;37.810;2024-02-23T01:18:00;27.85;;;12.07;;
75986;SDS011;75291;44.670;37.810;2024-02-23T01:19:04;20.98;;;10.68;;
75986;SDS011;75291;44.670;37.810;2024-02-23T01:20:08;22.40;;;11.85;;
75986;SDS011;75291;44.670;37.810;2024-02-23T01:21:13;24.88;;;11.18;;
75986;SDS011;75291;44.670;37.810;2024-02-23T01:22:17;25.58;;;11.30;;
75986;SDS011;75291;44.670;37.810;2024-02-23T01:23:22;22.58;;;11.45;;
75986;SDS011;75291;44.670;37.810;2024-02-23T01:24:27;23.05;;;10.55;;
75986;SDS011;75291;44.670;37.810;2024-02-23T01:25:32;23.75;;;11.55;;
75986;SDS011;75291;44.670;37.810;2024-02-23T01:26:38;26.83;;;12.27;;
75986;SDS011;75291;44.670;37.810;2024-02-23T01:27:43;21.15;;;11.82;;
75986;SDS011;75291;44.670;37.810;2024-02-23T01:28:49;24.27;;;11.23;;
75986;SDS011;75291;44.670;37.810;2024-02-23T01:29:52;27.10;;;11.50;;
75986;SDS011;75291;44.670;37.810;2024-02-23T01:30:56;23.15;;;11.23;;
75986;SDS011;75291;44.670;37.810;2024-02-23T01:32:00;24.08;;;11.60;;
75986;SDS011;75291;44.670;37.810;2024-02-23T01:33:05;28.40;;;12.15;;
75986;SDS011;75291;44.670;37.810;2024-02-23T01:34:08;25.65;;;12.13;;
75986;SDS011;75291;44.670;37.810;2024-02-23T01:35:12;23.98;;;11.70;;
75986;SDS011;75291;44.670;37.810;2024-02-23T01:36:16;24.85;;;13.20;;
75986;SDS011;75291;44.670;37.810;2024-02-23T01:37:21;22.15;;;11.27;;
75986;SDS011;75291;44.670;37.810;2024-02-23T01:38:26;28.70;;;12.55;;
75986;SDS011;75291;44.670;37.810;2024-02-23T01:39:34;25.05;;;11.63;;
75986;SDS011;75291;44.670;37.810;2024-02-23T01:40:37;24.42;;;11.35;;
75986;SDS011;75291;44.670;37.810;2024-02-23T01:41:41;27.63;;;12.10;;
75986;SDS011;75291;44.670;37.810;2024-02-23T01:42:47;28.13;;;12.45;;
75986;SDS011;75291;44.670;37.810;2024-02-23T01:43:50;28.67;;;12.93;;
75986;SDS011;75291;44.670;37.810;2024-02-23T01:44:53;25.85;;;12.45;;
75986;SDS011;75291;44.670;37.810;2024-02-23T01:45:59;24.80;;;12.80;;
75986;SDS011;75291;44.670;37.810;2024-02-23T01:47:03;26.60;;;12.73;;
75986;SDS011;75291;44.670;37.810;2024-02-23T01:48:07;30.60;;;13.13;;
75986;SDS011;75291;44.670;37.810;2024-02-23T01:49:11;26.85;;;12.85;;
75986;SDS011;75291;44.670;37.810;2024-02-23T01:50:15;32.75;;;13.82;;
75986;SDS011;75291;44.670;37.810;2024-02-23T01:51:19;23.05;;;13.05;;
75986;SDS011;75291;44.670;37.810;2024-02-23T01:52:24;28.38;;;13.13;;
75986;SDS011;75291;44.670;37.810;2024-02-23T01:53:27;25.40;;;12.57;;
75986;SDS011;75291;44.670;37.810;2024-02-23T01:54:31;24.73;;;13.07;;
75986;SDS011;75291;44.670;37.810;2024-02-23T01:55:37;28.42;;;13.05;;
75986;SDS011;75291;44.670;37.810;2024-02-23T01:56:44;27.52;;;12.38;;
75986;SDS011;75291;44.670;37.810;2024-02-23T01:57:47;26.55;;;13.93;;
75986;SDS011;75291;44.670;37.810;2024-02-23T01:58:51;28.90;;;14.65;;
75986;SDS011;75291;44.670;37.810;2024-02-23T01:59:57;28.92;;;14.63;;
75986;SDS011;75291;44.670;37.810;2024-02-23T02:01:03;30.98;;;12.63;;
75986;SDS011;75291;44.670;37.810;2024-02-23T02:02:06;23.35;;;12.48;;
75986;SDS011;75291;44.670;37.810;2024-02-23T02:03:10;24.10;;;13.63;;
75986;SDS011;75291;44.670;37.810;2024-02-23T02:04:14;23.50;;;13.27;;
75986;SDS011;75291;44.670;37.810;2024-02-23T02:05:18;26.10;;;14.02;;
75986;SDS011;75291;44.670;37.810;2024-02-23T02:06:23;30.35;;;14.13;;
75986;SDS011;75291;44.670;37.810;2024-02-23T02:07:27;26.42;;;14.45;;
75986;SDS011;75291;44.670;37.810;2024-02-23T02:08:32;30.85;;;15.23;;
75986;SDS011;75291;44.670;37.810;2024-02-23T02:09:38;24.15;;;13.93;;
75986;SDS011;75291;44.670;37.810;2024-02-23T02:10:41;25.20;;;14.15;;
75986;SDS011;75291;44.670;37.810;2024-02-23T02:11:49;25.38;;;14.52;;
75986;SDS011;75291;44.670;37.810;2024-02-23T02:12:53;25.42;;;13.73;;
75986;SDS011;75291;44.670;37.810;2024-02-23T02:13:57;24.38;;;14.07;;
75986;SDS011;75291;44.670;37.810;2024-02-23T02:15:02;24.70;;;13.88;;
75986;SDS011;75291;44.670;37.810;2024-02-23T02:16:07;23.33;;;14.40;;
75986;SDS011;75291;44.670;37.810;2024-02-23T02:17:11;24.55;;;12.52;;
75986;SDS011;75291;44.670;37.810;2024-02-23T02:18:15;24.98;;;12.95;;
75986;SDS011;75291;44.670;37.810;2024-02-23T02:19:19;24.10;;;12.95;;
75986;SDS011;75291;44.670;37.810;2024-02-23T02:20:25;25.48;;;13.85;;
75986;SDS011;75291;44.670;37.810;2024-02-23T02:21:34;26.40;;;14.27;;
75986;SDS011;75291;44.670;37.810;2024-02-23T02:22:38;22.50;;;15.77;;
75986;SDS011;75291;44.670;37.810;2024-02-23T02:23:42;26.20;;;16.48;;
75986;SDS011;75291;44.670;37.810;2024-02-23T02:24:46;29.50;;;16.20;;
75986;SDS011;75291;44.670;37.810;2024-02-23T02:26:58;23.02;;;12.55;;
75986;SDS011;75291;44.670;37.810;2024-02-23T02:28:04;23.48;;;12.32;;
75986;SDS011;75291;44.670;37.810;2024-02-23T02:29:10;23.58;;;12.50;;
75986;SDS011;75291;44.670;37.810;2024-02-23T02:30:14;24.38;;;12.27;;
75986;SDS011;75291;44.670;37.810;2024-02-23T02:31:17;22.17;;;11.70;;
75986;SDS011;75291;44.670;37.810;2024-02-23T02:32:22;23.73;;;11.23;;
75986;SDS011;75291;44.670;37.810;2024-02-23T02:33:27;24.35;;;11.65;;
75986;SDS011;75291;44.670;37.810;2024-02-23T02:34:31;21.75;;;12.48;;
75986;SDS011;75291;44.670;37.810;2024-02-23T02:35:35;21.60;;;11.48;;
75986;SDS011;75291;44.670;37.810;2024-02-23T02:36:38;22.27;;;11.05;;
75986;SDS011;75291;44.670;37.810;2024-02-23T02:37:42;19.15;;;11.30;;
75986;SDS011;75291;44.670;37.810;2024-02-23T02:38:46;20.48;;;11.00;;
75986;SDS011;75291;44.670;37.810;2024-02-23T02:39:50;23.05;;;10.80;;
75986;SDS011;75291;44.670;37.810;2024-02-23T02:40:53;22.98;;;10.55;;
75986;SDS011;75291;44.670;37.810;2024-02-23T02:41:57;25.52;;;11.07;;
75986;SDS011;75291;44.670;37.810;2024-02-23T02:43:01;20.30;;;9.98;;
75986;SDS011;75291;44.670;37.810;2024-02-23T02:44:05;23.30;;;10.48;;
75986;SDS011;75291;44.670;37.810;2024-02-23T02:45:09;21.35;;;10.88;;
75986;SDS011;75291;44.670;37.810;2024-02-23T02:46:13;22.50;;;10.88;;
75986;SDS011;75291;44.670;37.810;2024-02-23T02:47:16;22.27;;;10.25;;
75986;SDS011;75291;44.670;37.810;2024-02-23T02:48:20;21.02;;;10.70;;
75986;SDS011;75291;44.670;37.810;2024-02-23T02:49:24;23.10;;;12.05;;
75986;SDS011;75291;44.670;37.810;2024-02-23T02:50:28;24.77;;;11.13;;
75986;SDS011;75291;44.670;37.810;2024-02-23T02:51:33;24.73;;;13.48;;
75986;SDS011;75291;44.670;37.810;2024-02-23T02:52:38;21.20;;;10.93;;
75986;SDS011;75291;44.670;37.810;2024-02-23T02:53:41;23.75;;;11.70;;
75986;SDS011;75291;44.670;37.810;2024-02-23T02:54:45;24.08;;;11.90;;
75986;SDS011;75291;44.670;37.810;2024-02-23T02:55:49;25.45;;;10.63;;
75986;SDS011;75291;44.670;37.810;2024-02-23T02:56:53;24.38;;;11.57;;
75986;SDS011;75291;44.670;37.810;2024-02-23T02:57:57;21.23;;;11.77;;
75986;SDS011;75291;44.670;37.810;2024-02-23T02:59:01;27.63;;;11.05;;
75986;SDS011;75291;44.670;37.810;2024-02-23T03:00:05;20.05;;;10.05;;
75986;SDS011;75291;44.670;37.810;2024-02-23T03:01:11;21.40;;;10.75;;
75986;SDS011;75291;44.670;37.810;2024-02-23T03:02:14;23.08;;;9.95;;
75986;SDS011;75291;44.670;37.810;2024-02-23T03:03:18;23.02;;;9.68;;
75986;SDS011;75291;44.670;37.810;2024-02-23T03:04:22;23.27;;;10.55;;
75986;SDS011;75291;44.670;37.810;2024-02-23T03:05:26;21.38;;;11.10;;
75986;SDS011;75291;44.670;37.810;2024-02-23T03:06:30;23.52;;;9.98;;
75986;SDS011;75291;44.670;37.810;2024-02-23T03:07:34;24.23;;;10.52;;
75986;SDS011;75291;44.670;37.810;2024-02-23T03:08:38;24.25;;;10.77;;
75986;SDS011;75291;44.670;37.810;2024-02-23T03:09:45;23.60;;;10.45;;
75986;SDS011;75291;44.670;37.810;2024-02-23T03:10:48;26.08;;;10.95;;
75986;SDS011;75291;44.670;37.810;2024-02-23T03:11:52;25.08;;;11.32;;
75986;SDS011;75291;44.670;37.810;2024-02-23T03:12:56;27.35;;;11.02;;
75986;SDS011;75291;44.670;37.810;2024-02-23T03:13:59;27.65;;;11.88;;
75986;SDS011;75291;44.670;37.810;2024-02-23T03:15:04;27.65;;;11.60;;
75986;SDS011;75291;44.670;37.810;2024-02-23T03:16:14;25.48;;;11.55;;
75986;SDS011;75291;44.670;37.810;2024-02-23T03:17:23;24.73;;;10.88;;
75986;SDS011;75291;44.670;37.810;2024-02-23T03:18:26;24.90;;;11.00;;
75986;SDS011;75291;44.670;37.810;2024-02-23T03:19:33;22.65;;;10.88;;
75986;SDS011;75291;44.670;37.810;2024-02-23T03:20:37;29.05;;;11.48;;
75986;SDS011;75291;44.670;37.810;2024-02-23T03:21:40;25.33;;;10.43;;
75986;SDS011;75291;44.670;37.810;2024-02-23T03:22:44;22.80;;;11.25;;
75986;SDS011;75291;44.670;37.810;2024-02-23T03:23:48;19.75;;;10.05;;
75986;SDS011;75291;44.670;37.810;2024-02-23T03:24:51;27.38;;;10.68;;
75986;SDS011;75291;44.670;37.810;2024-02-23T03:25:55;19.60;;;10.38;;
75986;SDS011;75291;44.670;37.810;2024-02-23T03:26:59;21.52;;;10.30;;
75986;SDS011;75291;44.670;37.810;2024-02-23T03:28:02;24.95;;;10.00;;
75986;SDS011;75291;44.670;37.810;2024-02-23T03:29:06;19.73;;;10.15;;
75986;SDS011;75291;44.670;37.810;2024-02-23T03:30:10;21.67;;;10.55;;
75986;SDS011;75291;44.670;37.810;2024-02-23T03:31:14;27.30;;;11.20;;
75986;SDS011;75291;44.670;37.810;2024-02-23T03:32:17;22.33;;;10.35;;
75986;SDS011;75291;44.670;37.810;2024-02-23T03:33:20;24.33;;;11.10;;
75986;SDS011;75291;44.670;37.810;2024-02-23T03:34:24;25.42;;;11.05;;
75986;SDS011;75291;44.670;37.810;2024-02-23T03:35:28;26.08;;;11.30;;
75986;SDS011;75291;44.670;37.810;2024-02-23T03:36:32;25.58;;;11.65;;
75986;SDS011;75291;44.670;37.810;2024-02-23T03:37:37;22.05;;;10.95;;
75986;SDS011;75291;44.670;37.810;2024-02-23T03:38:40;22.52;;;11.50;;
75986;SDS011;75291;44.670;37.810;2024-02-23T03:39:44;28.17;;;11.25;;
75986;SDS011;75291;44.670;37.810;2024-02-23T03:40:48;23.88;;;11.07;;
75986;SDS011;75291;44.670;37.810;2024-02-23T03:41:52;25.20;;;10.82;;
75986;SDS011;75291;44.670;37.810;2024-02-23T03:42:56;23.55;;;10.32;;
75986;SDS011;75291;44.670;37.810;2024-02-23T03:44:00;21.20;;;11.07;;
75986;SDS011;75291;44.670;37.810;2024-02-23T03:45:04;24.73;;;11.45;;
75986;SDS011;75291;44.670;37.810;2024-02-23T03:46:08;21.63;;;10.88;;
75986;SDS011;75291;44.670;37.810;2024-02-23T03:47:11;23.50;;;11.35;;
75986;SDS011;75291;44.670;37.810;2024-02-23T03:48:15;27.65;;;11.50;;
75986;SDS011;75291;44.670;37.810;2024-02-23T03:49:19;23.73;;;11.35;;
75986;SDS011;75291;44.670;37.810;2024-02-23T03:50:23;25.00;;;10.93;;
75986;SDS011;75291;44.670;37.810;2024-02-23T03:51:27;20.52;;;10.43;;
75986;SDS011;75291;44.670;37.810;2024-02-23T03:52:30;20.70;;;11.02;;
75986;SDS011;75291;44.670;37.810;2024-02-23T03:53:34;20.80;;;10.73;;
75986;SDS011;75291;44.670;37.810;2024-02-23T03:54:37;21.50;;;11.13;;
75986;SDS011;75291;44.670;37.810;2024-02-23T03:55:41;23.70;;;11.32;;
75986;SDS011;75291;44.670;37.810;2024-02-23T03:56:45;26.65;;;12.10;;
75986;SDS011;75291;44.670;37.810;2024-02-23T03:57:49;23.33;;;11.45;;
75986;SDS011;75291;44.670;37.810;2024-02-23T03:58:52;22.27;;;11.20;;
75986;SDS011;75291;44.670;37.810;2024-02-23T03:59:56;23.67;;;11.82;;
75986;SDS011;75291;44.670;37.810;2024-02-23T04:01:00;26.35;;;11.80;;
75986;SDS011;75291;44.670;37.810;2024-02-23T04:02:04;22.92;;;10.55;;
75986;SDS011;75291;44.670;37.810;2024-02-23T04:03:07;21.55;;;10.70;;
75986;SDS011;75291;44.670;37.810;2024-02-23T04:04:11;24.58;;;11.23;;
75986;SDS011;75291;44.670;37.810;2024-02-23T04:05:15;23.85;;;10.55;;
75986;SDS011;75291;44.670;37.810;2024-02-23T04:06:19;21.92;;;11.18;;
75986;SDS011;75291;44.670;37.810;2024-02-23T04:07:22;24.25;;;11.73;;
75986;SDS011;75291;44.670;37.810;2024-02-23T04:08:26;23.55;;;10.93;;
75986;SDS011;75291;44.670;37.810;2024-02-23T04:09:29;21.83;;;10.63;;
75986;SDS011;75291;44.670;37.810;2024-02-23T04:10:32;23.95;;;10.93;;
75986;SDS011;75291;44.670;37.810;2024-02-23T04:11:36;23.80;;;10.98;;
75986;SDS011;75291;44.670;37.810;2024-02-23T04:12:40;23.30;;;11.38;;
75986;SDS011;75291;44.670;37.810;2024-02-23T04:13:44;22.55;;;10.95;;
75986;SDS011;75291;44.670;37.810;2024-02-23T04:14:48;23.42;;;11.45;;
75986;SDS011;75291;44.670;37.810;2024-02-23T04:15:52;22.83;;;11.05;;
75986;SDS011;75291;44.670;37.810;2024-02-23T04:16:56;21.98;;;10.73;;
75986;SDS011;75291;44.670;37.810;2024-02-23T04:18:00;23.90;;;11.23;;
75986;SDS011;75291;44.670;37.810;2024-02-23T04:19:04;22.98;;;10.90;;
75986;SDS011;75291;44.670;37.810;2024-02-23T04:20:07;21.40;;;11.18;;
75986;SDS011;75291;44.670;37.810;2024-02-23T04:21:12;25.10;;;12.32;;
75986;SDS011;75291;44.670;37.810;2024-02-23T04:22:18;22.48;;;10.57;;
75986;SDS011;75291;44.670;37.810;2024-02-23T04:23:21;23.92;;;11.25;;
75986;SDS011;75291;44.670;37.810;2024-02-23T04:24:26;23.02;;;11.38;;
75986;SDS011;75291;44.670;37.810;2024-02-23T04:25:29;23.58;;;10.50;;
75986;SDS011;75291;44.670;37.810;2024-02-23T04:26:33;20.73;;;11.05;;
75986;SDS011;75291;44.670;37.810;2024-02-23T04:27:37;22.88;;;11.35;;
75986;SDS011;75291;44.670;37.810;2024-02-23T04:28:41;23.95;;;10.40;;
75986;SDS011;75291;44.670;37.810;2024-02-23T04:29:44;22.50;;;10.98;;
75986;SDS011;75291;44.670;37.810;2024-02-23T04:30:48;25.73;;;11.10;;
75986;SDS011;75291;44.670;37.810;2024-02-23T04:31:53;21.27;;;10.15;;
75986;SDS011;75291;44.670;37.810;2024-02-23T04:32:56;25.38;;;11.43;;
75986;SDS011;75291;44.670;37.810;2024-02-23T04:34:01;24.23;;;10.48;;
75986;SDS011;75291;44.670;37.810;2024-02-23T04:35:05;19.55;;;10.60;;
75986;SDS011;75291;44.670;37.810;2024-02-23T04:36:10;23.08;;;10.32;;
75986;SDS011;75291;44.670;37.810;2024-02-23T04:37:14;21.83;;;11.18;;
75986;SDS011;75291;44.670;37.810;2024-02-23T04:38:18;24.27;;;10.82;;
75986;SDS011;75291;44.670;37.810;2024-02-23T04:39:25;23.92;;;10.45;;
75986;SDS011;75291;44.670;37.810;2024-02-23T04:40:28;28.75;;;12.15;;
75986;SDS011;75291;44.670;37.810;2024-02-23T04:41:32;21.58;;;10.95;;
75986;SDS011;75291;44.670;37.810;2024-02-23T04:42:35;25.25;;;11.07;;
75986;SDS011;75291;44.670;37.810;2024-02-23T04:43:39;23.73;;;11.48;;
75986;SDS011;75291;44.670;37.810;2024-02-23T04:44:46;22.70;;;12.18;;
75986;SDS011;75291;44.670;37.810;2024-02-23T04:45:52;28.40;;;12.30;;
75986;SDS011;75291;44.670;37.810;2024-02-23T04:46:55;26.00;;;12.05;;
75986;SDS011;75291;44.670;37.810;2024-02-23T04:47:58;27.23;;;13.77;;
75986;SDS011;75291;44.670;37.810;2024-02-23T04:49:02;28.92;;;13.77;;
75986;SDS011;75291;44.670;37.810;2024-02-23T04:50:06;36.47;;;14.52;;
75986;SDS011;75291;44.670;37.810;2024-02-23T04:51:11;29.33;;;14.70;;
75986;SDS011;75291;44.670;37.810;2024-02-23T04:52:14;33.85;;;16.02;;
75986;SDS011;75291;44.670;37.810;2024-02-23T04:53:18;35.13;;;15.43;;
75986;SDS011;75291;44.670;37.810;2024-02-23T04:54:22;36.97;;;17.02;;
75986;SDS011;75291;44.670;37.810;2024-02-23T04:55:26;34.33;;;16.70;;
75986;SDS011;75291;44.670;37.810;2024-02-23T04:56:30;36.08;;;15.38;;
75986;SDS011;75291;44.670;37.810;2024-02-23T04:57:36;36.58;;;15.52;;
75986;SDS011;75291;44.670;37.810;2024-02-23T04:58:43;40.25;;;18.48;;
75986;SDS011;75291;44.670;37.810;2024-02-23T04:59:52;38.78;;;16.58;;
75986;SDS011;75291;44.670;37.810;2024-02-23T05:00:55;40.78;;;15.25;;
75986;SDS011;75291;44.670;37.810;2024-02-23T05:01:58;35.10;;;14.30;;
75986;SDS011;75291;44.670;37.810;2024-02-23T05:03:02;36.78;;;15.18;;
75986;SDS011;75291;44.670;37.810;2024-02-23T05:04:05;30.65;;;14.55;;
75986;SDS011;75291;44.670;37.810;2024-02-23T05:05:09;32.17;;;15.13;;
75986;SDS011;75291;44.670;37.810;2024-02-23T05:06:13;39.00;;;13.48;;
75986;SDS011;75291;44.670;37.810;2024-02-23T05:07:17;37.67;;;14.57;;
75986;SDS011;75291;44.670;37.810;2024-02-23T05:08:21;31.60;;;12.55;;
75986;SDS011;75291;44.670;37.810;2024-02-23T05:09:27;33.47;;;13.85;;
75986;SDS011;75291;44.670;37.810;2024-02-23T05:10:30;34.10;;;14.13;;
75986;SDS011;75291;44.670;37.810;2024-02-23T05:11:33;27.73;;;12.75;;
75986;SDS011;75291;44.670;37.810;2024-02-23T05:12:37;30.83;;;11.85;;
75986;SDS011;75291;44.670;37.810;2024-02-23T05:13:41;30.08;;;12.02;;
75986;SDS011;75291;44.670;37.810;2024-02-23T05:14:44;28.63;;;13.15;;
75986;SDS011;75291;44.670;37.810;2024-02-23T05:15:47;28.73;;;11.63;;
75986;SDS011;75291;44.670;37.810;2024-02-23T05:16:51;28.13;;;11.70;;
75986;SDS011;75291;44.670;37.810;2024-02-23T05:17:54;30.17;;;12.27;;
75986;SDS011;75291;44.670;37.810;2024-02-23T05:18:58;29.40;;;12.10;;
75986;SDS011;75291;44.670;37.810;2024-02-23T05:20:02;29.63;;;12.05;;
75986;SDS011;75291;44.670;37.810;2024-02-23T05:21:10;23.80;;;11.38;;
75986;SDS011;75291;44.670;37.810;2024-02-23T05:22:13;28.05;;;11.90;;
75986;SDS011;75291;44.670;37.810;2024-02-23T05:23:17;29.75;;;12.65;;
75986;SDS011;75291;44.670;37.810;2024-02-23T05:24:20;28.50;;;12.18;;
75986;SDS011;75291;44.670;37.810;2024-02-23T05:25:23;24.05;;;10.80;;
75986;SDS011;75291;44.670;37.810;2024-02-23T05:26:30;27.90;;;11.93;;
75986;SDS011;75291;44.670;37.810;2024-02-23T05:27:34;27.90;;;11.70;;
75986;SDS011;75291;44.670;37.810;2024-02-23T05:28:38;33.45;;;15.13;;
75986;SDS011;75291;44.670;37.810;2024-02-23T05:29:41;27.75;;;12.63;;
75986;SDS011;75291;44.670;37.810;2024-02-23T05:30:45;30.55;;;13.85;;
75986;SDS011;75291;44.670;37.810;2024-02-23T05:31:51;35.78;;;15.05;;
75986;SDS011;75291;44.670;37.810;2024-02-23T05:32:55;28.13;;;13.40;;
75986;SDS011;75291;44.670;37.810;2024-02-23T05:34:00;28.63;;;12.07;;
75986;SDS011;75291;44.670;37.810;2024-02-23T05:35:04;30.85;;;13.48;;
75986;SDS011;75291;44.670;37.810;2024-02-23T05:36:08;24.73;;;13.00;;
75986;SDS011;75291;44.670;37.810;2024-02-23T05:37:12;31.75;;;14.43;;
75986;SDS011;75291;44.670;37.810;2024-02-23T05:38:16;39.67;;;15.48;;
75986;SDS011;75291;44.670;37.810;2024-02-23T05:39:19;37.97;;;16.55;;
75986;SDS011;75291;44.670;37.810;2024-02-23T05:40:23;32.88;;;15.93;;
75986;SDS011;75291;44.670;37.810;2024-02-23T05:41:26;31.45;;;14.73;;
75986;SDS011;75291;44.670;37.810;2024-02-23T05:42:30;33.30;;;15.10;;
75986;SDS011;75291;44.670;37.810;2024-02-23T05:43:34;31.35;;;14.48;;
75986;SDS011;75291;44.670;37.810;2024-02-23T05:44:38;31.85;;;14.50;;
75986;SDS011;75291;44.670;37.810;2024-02-23T05:45:43;28.75;;;14.45;;
75986;SDS011;75291;44.670;37.810;2024-02-23T05:46:48;32.50;;;15.60;;
75986;SDS011;75291;44.670;37.810;2024-02-23T05:47:51;35.92;;;16.42;;
75986;SDS011;75291;44.670;37.810;2024-02-23T05:48:54;32.85;;;15.00;;
75986;SDS011;75291;44.670;37.810;2024-02-23T05:49:59;35.88;;;17.88;;
75986;SDS011;75291;44.670;37.810;2024-02-23T05:51:03;40.80;;;20.23;;
75986;SDS011;75291;44.670;37.810;2024-02-23T05:52:07;43.85;;;23.92;;
75986;SDS011;75291;44.670;37.810;2024-02-23T05:53:12;45.90;;;25.08;;
75986;SDS011;75291;44.670;37.810;2024-02-23T05:54:18;45.55;;;23.02;;
75986;SDS011;75291;44.670;37.810;2024-02-23T05:55:22;42.83;;;20.00;;
75986;SDS011;75291;44.670;37.810;2024-02-23T05:56:28;38.95;;;17.48;;
75986;SDS011;75291;44.670;37.810;2024-02-23T05:57:32;43.45;;;17.02;;
75986;SDS011;75291;44.670;37.810;2024-02-23T05:58:36;50.55;;;16.92;;
75986;SDS011;75291;44.670;37.810;2024-02-23T05:59:41;46.25;;;17.48;;
75986;SDS011;75291;44.670;37.810;2024-02-23T06:00:44;42.33;;;16.02;;
75986;SDS011;75291;44.670;37.810;2024-02-23T06:01:48;38.35;;;15.65;;
75986;SDS011;75291;44.670;37.810;2024-02-23T06:02:52;36.63;;;16.73;;
75986;SDS011;75291;44.670;37.810;2024-02-23T06:03:55;42.10;;;15.27;;
75986;SDS011;75291;44.670;37.810;2024-02-23T06:04:58;36.22;;;16.08;;
75986;SDS011;75291;44.670;37.810;2024-02-23T06:06:01;38.88;;;15.95;;
75986;SDS011;75291;44.670;37.810;2024-02-23T06:07:05;40.65;;;16.10;;
75986;SDS011;75291;44.670;37.810;2024-02-23T06:08:08;44.28;;;17.13;;
75986;SDS011;75291;44.670;37.810;2024-02-23T06:09:11;37.30;;;16.50;;
75986;SDS011;75291;44.670;37.810;2024-02-23T06:10:16;38.85;;;16.27;;